createdAt,value
2023-05-21T00:02:12.079Z,20.00
2023-05-21T00:04:44.011Z,20.00
2023-05-21T00:07:13.018Z,20.00
2023-05-21T00:09:41.529Z,20.00
2023-05-21T00:12:10.271Z,20.00
2023-05-21T00:14:38.549Z,20.00
2023-05-21T00:17:07.197Z,20.00
2023-05-21T00:19:36.118Z,20.00
2023-05-21T00:22:04.820Z,19.90
2023-05-21T00:24:33.210Z,20.00
2023-05-21T00:27:01.829Z,20.00
2023-05-21T00:29:30.337Z,20.00
2023-05-21T00:31:59.105Z,19.90
2023-05-21T00:34:27.540Z,20.00
2023-05-21T00:36:56.118Z,20.00
2023-05-21T00:39:25.494Z,19.90
2023-05-21T00:41:57.171Z,19.90
2023-05-21T00:44:25.733Z,19.90
2023-05-21T00:46:54.355Z,20.00
2023-05-21T00:49:26.121Z,20.00
2023-05-21T00:51:55.114Z,19.90
2023-05-21T00:54:23.996Z,20.00
2023-05-21T00:56:52.654Z,19.90
2023-05-21T00:59:20.990Z,19.90
2023-05-21T01:01:56.184Z,19.90
2023-05-21T01:04:24.645Z,19.90
2023-05-21T01:06:53.715Z,19.90
2023-05-21T01:09:22.116Z,19.90
2023-05-21T01:11:51.297Z,19.90
2023-05-21T01:14:19.969Z,19.90
2023-05-21T01:16:49.906Z,19.90
2023-05-21T01:19:23.817Z,19.90
2023-05-21T01:21:56.912Z,19.90
2023-05-21T01:24:25.297Z,19.90
2023-05-21T01:26:54.003Z,19.90
2023-05-21T01:29:22.530Z,19.90
2023-05-21T01:32:18.791Z,19.90
2023-05-21T01:35:10.560Z,19.90
2023-05-21T01:37:52.293Z,19.90
2023-05-21T01:40:31.426Z,19.90
2023-05-21T01:43:00.478Z,19.90
2023-05-21T01:45:30.017Z,19.90
2023-05-21T01:47:58.850Z,19.90
2023-05-21T01:55:28.560Z,19.90
2023-05-21T01:57:57.064Z,19.90
2023-05-21T02:00:31.102Z,19.90
2023-05-21T02:03:00.008Z,19.90
2023-05-21T02:05:28.795Z,19.90
2023-05-21T02:08:00.209Z,19.90
2023-05-21T02:10:28.924Z,19.90
2023-05-21T02:12:57.277Z,19.90
2023-05-21T02:15:26.254Z,19.90
2023-05-21T02:17:55.921Z,19.80
2023-05-21T02:20:24.846Z,19.90
2023-05-21T02:22:53.157Z,19.90
2023-05-21T02:25:21.794Z,19.90
2023-05-21T02:27:54.065Z,19.80
2023-05-21T02:30:22.798Z,19.80
2023-05-21T02:32:51.085Z,19.90
2023-05-21T02:35:20.025Z,19.90
2023-05-21T02:37:49.295Z,19.90
2023-05-21T02:40:17.988Z,19.80
2023-05-21T02:42:46.251Z,19.80
2023-05-21T02:45:20.535Z,19.90
2023-05-21T02:47:49.321Z,19.80
2023-05-21T02:50:22.601Z,19.90
2023-05-21T02:53:00.142Z,19.90
2023-05-21T02:55:29.559Z,19.90
2023-05-21T02:57:57.908Z,19.80
2023-05-21T03:00:26.545Z,19.90
2023-05-21T03:02:54.946Z,19.90
2023-05-21T03:05:24.577Z,19.90
2023-05-21T03:07:53.735Z,19.80
2023-05-21T03:10:25.925Z,19.90
2023-05-21T03:12:55.080Z,19.90
2023-05-21T03:15:24.522Z,19.90
2023-05-21T03:17:54.608Z,19.90
2023-05-21T03:20:25.708Z,19.80
2023-05-21T03:22:55.271Z,19.90
2023-05-21T03:25:25.471Z,19.90
2023-05-21T03:27:55.837Z,19.90
2023-05-21T03:30:46.689Z,19.90
2023-05-21T03:33:38.242Z,19.80
2023-05-21T03:36:21.821Z,19.80
2023-05-21T03:38:50.231Z,19.90
2023-05-21T03:41:19.194Z,19.80
2023-05-21T03:43:52.158Z,19.80
2023-05-21T03:46:23.610Z,19.80
2023-05-21T03:49:08.322Z,19.80
2023-05-21T03:51:39.807Z,19.80
2023-05-21T03:54:10.000Z,19.80
2023-05-21T03:56:39.835Z,19.80
2023-05-21T03:59:08.082Z,19.80
2023-05-21T04:01:37.305Z,19.80
2023-05-21T04:04:06.398Z,19.80
2023-05-21T04:06:35.283Z,19.80
2023-05-21T04:09:03.767Z,19.80
2023-05-21T04:11:32.460Z,19.80
2023-05-21T04:14:01.455Z,19.80
2023-05-21T04:16:31.381Z,19.80
2023-05-21T04:18:59.852Z,19.80
2023-05-21T04:21:29.592Z,19.80
2023-05-21T04:24:01.266Z,19.80
2023-05-21T04:26:52.840Z,19.80
2023-05-21T04:29:21.601Z,19.80
2023-05-21T04:31:51.986Z,19.80
2023-05-21T04:34:20.372Z,19.80
2023-05-21T04:36:50.060Z,19.80
2023-05-21T04:39:18.438Z,19.80
2023-05-21T04:41:47.170Z,19.80
2023-05-21T04:44:16.909Z,19.80
2023-05-21T04:46:49.307Z,19.80
2023-05-21T04:49:21.230Z,19.80
2023-05-21T04:51:49.852Z,19.80
2023-05-21T04:54:18.177Z,19.80
2023-05-21T04:56:47.639Z,19.80
2023-05-21T04:59:17.019Z,19.80
2023-05-21T05:01:45.660Z,19.80
2023-05-21T05:04:14.012Z,19.80
2023-05-21T05:06:42.963Z,19.80
2023-05-21T05:09:11.510Z,19.80
2023-05-21T05:11:40.071Z,19.80
2023-05-21T05:14:08.400Z,19.80
2023-05-21T05:16:37.186Z,19.80
2023-05-21T05:19:05.625Z,19.80
2023-05-21T05:21:34.839Z,19.80
2023-05-21T05:24:03.271Z,19.80
2023-05-21T05:26:33.820Z,19.80
2023-05-21T05:29:02.242Z,19.80
2023-05-21T05:31:31.353Z,19.80
2023-05-21T05:33:59.961Z,19.80
2023-05-21T05:36:28.641Z,19.80
2023-05-21T05:38:57.225Z,19.80
2023-05-21T05:41:27.391Z,19.80
2023-05-21T05:43:57.420Z,19.80
2023-05-21T05:46:29.863Z,19.80
2023-05-21T05:48:58.432Z,19.80
2023-05-21T05:51:27.030Z,19.80
2023-05-21T05:53:55.652Z,19.80
2023-05-21T05:56:24.411Z,19.80
2023-05-21T05:58:52.838Z,19.80
2023-05-21T06:01:24.852Z,19.80
2023-05-21T06:03:53.786Z,19.80
2023-05-21T06:06:22.553Z,19.80
2023-05-21T06:08:51.096Z,19.80
2023-05-21T06:11:21.764Z,19.80
2023-05-21T06:13:50.145Z,19.80
2023-05-21T06:16:20.194Z,19.90
2023-05-21T06:18:48.627Z,19.90
2023-05-21T06:21:17.599Z,19.80
2023-05-21T06:23:47.259Z,19.90
2023-05-21T06:26:19.484Z,19.90
2023-05-21T06:28:50.318Z,19.90
2023-05-21T06:31:22.632Z,19.90
2023-05-21T06:33:51.453Z,19.90
2023-05-21T06:36:20.592Z,19.90
2023-05-21T06:38:49.729Z,19.90
2023-05-21T06:41:18.411Z,19.90
2023-05-21T06:43:56.981Z,19.90
2023-05-21T06:46:44.302Z,19.90
2023-05-21T06:49:14.450Z,19.90
2023-05-21T06:51:44.836Z,20.00
2023-05-21T06:54:14.707Z,20.00
2023-05-21T06:56:44.027Z,20.00
2023-05-21T06:59:12.731Z,20.00
2023-05-21T07:01:42.763Z,20.00
2023-05-21T07:04:11.624Z,20.00
2023-05-21T07:06:42.304Z,20.00
2023-05-21T07:09:10.807Z,20.00
2023-05-21T07:11:40.507Z,20.00
2023-05-21T07:14:10.228Z,20.00
2023-05-21T07:16:40.336Z,20.10
2023-05-21T07:19:09.792Z,20.00
2023-05-21T07:21:38.652Z,20.10
2023-05-21T07:24:09.171Z,20.10
2023-05-21T07:26:41.386Z,20.10
2023-05-21T07:29:10.109Z,20.10
2023-05-21T07:31:38.876Z,20.10
2023-05-21T07:34:08.193Z,20.20
2023-05-21T07:36:37.192Z,20.20
2023-05-21T07:39:05.726Z,20.20
2023-05-21T07:41:34.712Z,20.20
2023-05-21T07:44:07.286Z,20.30
2023-05-21T07:46:40.178Z,20.30
2023-05-21T07:49:17.057Z,20.40
2023-05-21T07:51:48.195Z,20.50
2023-05-21T07:54:17.589Z,20.50
2023-05-21T07:56:46.936Z,20.60
2023-05-21T07:59:29.567Z,20.70
2023-05-21T08:01:58.452Z,20.70
2023-05-21T08:04:27.338Z,20.80
2023-05-21T08:06:56.643Z,20.80
2023-05-21T08:09:25.785Z,20.80
2023-05-21T08:11:54.515Z,20.90
2023-05-21T08:14:22.961Z,20.90
2023-05-21T08:19:21.350Z,21.00
2023-05-21T08:42:40.793Z,21.00
2023-05-21T08:45:12.618Z,20.90
2023-05-21T08:47:44.901Z,20.80
2023-05-21T08:50:19.870Z,20.80
2023-05-21T08:52:50.796Z,20.90
2023-05-21T08:55:19.317Z,20.90
2023-05-21T08:57:48.329Z,20.90
2023-05-21T09:00:21.427Z,20.90
2023-05-21T09:02:51.306Z,21.00
2023-05-21T09:05:20.879Z,21.00
2023-05-21T09:08:07.163Z,21.00
2023-05-21T09:10:51.644Z,21.00
2023-05-21T09:13:23.148Z,21.00
2023-05-21T09:15:52.509Z,21.10
2023-05-21T09:18:22.674Z,21.10
2023-05-21T09:21:26.813Z,21.10
2023-05-21T09:24:00.154Z,21.20
2023-05-21T09:26:28.679Z,21.20
2023-05-21T09:29:01.761Z,21.20
2023-05-21T09:31:30.427Z,21.30
2023-05-21T09:33:59.369Z,21.40
2023-05-21T09:36:29.895Z,21.40
2023-05-21T09:39:00.372Z,21.40
2023-05-21T09:41:33.930Z,21.30
2023-05-21T09:44:02.923Z,21.40
2023-05-21T09:46:40.837Z,21.50
2023-05-21T09:49:26.594Z,21.50
2023-05-21T09:51:59.013Z,21.50
2023-05-21T09:54:33.499Z,21.50
2023-05-21T09:57:04.863Z,21.60
2023-05-21T09:59:39.583Z,21.60
2023-05-21T10:02:22.161Z,21.60
2023-05-21T10:04:52.005Z,21.60
2023-05-21T10:07:26.127Z,21.60
2023-05-21T10:09:58.472Z,21.60
2023-05-21T10:12:29.749Z,21.60
2023-05-21T10:15:04.048Z,21.70
2023-05-21T10:17:32.362Z,21.70
2023-05-21T10:20:01.841Z,21.70
2023-05-21T10:22:30.140Z,21.70
2023-05-21T10:24:58.814Z,21.70
2023-05-21T10:32:28.188Z,21.70
2023-05-21T14:10:30.297Z,21.70
2023-05-21T14:23:15.914Z,22.90
2023-05-21T14:25:44.577Z,22.90
2023-05-21T14:28:13.534Z,23.00
2023-05-21T14:30:42.082Z,22.90
2023-05-21T14:33:13.772Z,22.90
2023-05-21T14:35:44.473Z,22.80
2023-05-21T14:38:13.433Z,22.80
2023-05-21T14:40:42.265Z,22.80
2023-05-21T14:43:11.284Z,22.80
2023-05-21T14:45:40.108Z,22.70
2023-05-21T14:48:09.477Z,22.70
2023-05-21T14:50:41.424Z,22.70
2023-05-21T14:53:11.664Z,22.70
2023-05-21T14:55:40.618Z,22.70
2023-05-21T14:58:09.945Z,22.80
2023-05-21T15:00:39.209Z,22.70
2023-05-21T15:03:08.628Z,22.70
2023-05-21T15:05:37.698Z,22.70
2023-05-21T15:08:08.282Z,22.70
2023-05-21T15:10:36.781Z,22.60
2023-05-21T15:13:05.754Z,22.60
2023-05-21T15:15:34.197Z,22.60
2023-05-21T15:18:03.044Z,22.70
2023-05-21T15:25:32.764Z,23.60
2023-05-21T15:28:01.446Z,23.70
2023-05-21T15:30:29.950Z,23.80
2023-05-21T15:45:25.309Z,24.10
2023-05-21T15:57:51.350Z,24.10
2023-05-21T16:00:19.968Z,24.40
2023-05-21T16:02:48.215Z,24.40
2023-05-21T16:05:17.038Z,24.50
2023-05-21T16:07:46.792Z,24.50
2023-05-21T16:10:15.999Z,24.60
2023-05-21T16:12:44.805Z,24.50
2023-05-21T16:15:13.526Z,24.60
2023-05-21T16:17:41.924Z,24.60
2023-05-21T16:20:11.407Z,24.50
2023-05-21T16:22:40.606Z,24.50
2023-05-21T16:25:09.992Z,24.50
2023-05-21T16:30:08.498Z,24.70
2023-05-21T16:32:36.991Z,24.70
2023-05-21T16:35:07.245Z,24.70
2023-05-21T16:37:35.818Z,24.60
2023-05-21T16:40:05.133Z,24.50
2023-05-21T16:42:33.576Z,24.50
2023-05-21T16:45:02.554Z,24.60
2023-05-21T16:47:31.053Z,24.70
2023-05-21T16:50:01.412Z,24.60
2023-05-21T16:52:29.928Z,24.70
2023-05-21T16:54:58.578Z,24.80
2023-05-21T16:57:26.916Z,24.90
2023-05-21T16:59:55.756Z,24.80
2023-05-21T17:02:25.002Z,24.70
2023-05-21T17:04:53.829Z,24.50
2023-05-21T17:07:22.119Z,24.50
2023-05-21T17:09:50.748Z,24.50
2023-05-21T17:12:19.289Z,24.50
2023-05-21T17:14:48.338Z,24.40
2023-05-21T17:17:17.040Z,24.40
2023-05-21T17:19:45.871Z,24.30
2023-05-21T17:22:14.999Z,24.10
2023-05-21T17:24:43.957Z,24.10
2023-05-21T17:27:12.552Z,24.10
2023-05-21T17:29:41.702Z,24.10
2023-05-21T17:32:11.291Z,24.20
2023-05-21T17:34:40.037Z,24.30
2023-05-21T17:37:08.380Z,24.40
2023-05-21T17:39:37.094Z,24.40
2023-05-21T17:42:06.127Z,24.30
2023-05-21T17:44:34.819Z,24.30
2023-05-21T17:47:03.466Z,24.20
2023-05-21T17:49:32.349Z,24.10
2023-05-21T17:52:03.216Z,24.10
2023-05-21T17:54:32.075Z,24.00
2023-05-21T17:57:00.450Z,24.00
2023-05-21T17:59:29.281Z,24.00
2023-05-21T18:02:01.489Z,24.00
2023-05-21T18:04:30.351Z,23.90
2023-05-21T18:06:58.703Z,23.90
2023-05-21T18:09:27.444Z,23.90
2023-05-21T18:11:55.735Z,23.90
2023-05-21T18:14:24.396Z,23.80
2023-05-21T18:16:52.885Z,23.80
2023-05-21T18:19:22.140Z,23.80
2023-05-21T18:21:50.573Z,23.70
2023-05-21T18:24:19.232Z,23.70
2023-05-21T18:26:49.062Z,23.60
2023-05-21T18:29:17.704Z,23.60
2023-05-21T18:31:46.112Z,23.60
2023-05-21T18:34:17.032Z,23.60
2023-05-21T18:36:45.404Z,23.60
2023-05-21T18:39:14.293Z,23.60
2023-05-21T18:41:42.888Z,23.60
2023-05-21T18:44:12.945Z,23.50
2023-05-21T18:46:41.372Z,23.50
2023-05-21T18:49:10.416Z,23.50
2023-05-21T18:51:38.946Z,23.50
2023-05-21T18:54:08.619Z,23.50
2023-05-21T18:56:37.176Z,23.40
2023-05-21T18:59:06.075Z,23.40
2023-05-21T19:01:34.706Z,23.40
2023-05-21T19:04:04.746Z,23.30
2023-05-21T19:06:33.341Z,23.30
2023-05-21T19:09:02.856Z,23.30
2023-05-21T19:11:34.533Z,23.30
2023-05-21T19:14:03.926Z,23.30
2023-05-21T19:16:32.417Z,23.30
2023-05-21T19:19:02.346Z,23.20
2023-05-21T19:21:31.614Z,23.20
2023-05-21T19:24:01.288Z,23.20
2023-05-21T19:26:30.699Z,23.20
2023-05-21T19:29:00.323Z,23.20
2023-05-21T19:31:28.782Z,23.10
2023-05-21T19:33:58.326Z,23.10
2023-05-21T19:36:32.589Z,23.10
2023-05-21T19:39:07.796Z,23.00
2023-05-21T19:41:36.825Z,23.00
2023-05-21T19:44:05.618Z,23.00
2023-05-21T19:46:34.397Z,23.00
2023-05-21T19:49:03.304Z,23.00
2023-05-21T19:51:31.946Z,23.00
2023-05-21T19:54:00.715Z,23.00
2023-05-21T19:56:29.666Z,23.00
2023-05-21T19:58:58.505Z,22.90
2023-05-21T20:01:29.251Z,22.90
2023-05-21T20:03:58.891Z,22.90
2023-05-21T20:06:27.583Z,22.90
2023-05-21T20:08:56.577Z,22.90
2023-05-21T20:11:25.153Z,22.90
2023-05-21T20:13:54.555Z,22.90
2023-05-21T20:16:23.426Z,22.80
2023-05-21T20:18:57.206Z,22.90
2023-05-21T20:21:25.726Z,22.80
2023-05-21T20:23:54.648Z,22.80
2023-05-21T20:26:23.390Z,22.80
2023-05-21T20:28:52.126Z,22.80
2023-05-21T20:31:22.021Z,22.80
2023-05-21T20:33:52.502Z,22.80
2023-05-21T20:36:21.447Z,22.80
2023-05-21T20:38:50.613Z,22.80
2023-05-21T20:41:20.240Z,22.70
2023-05-21T20:43:49.124Z,22.70
2023-05-21T20:46:17.758Z,22.70
2023-05-21T20:48:47.483Z,22.70
2023-05-21T20:51:16.019Z,22.70
2023-05-21T20:53:44.808Z,22.70
2023-05-21T20:56:14.923Z,22.70
2023-05-21T20:58:44.161Z,22.70
2023-05-21T21:01:14.700Z,22.70
2023-05-21T21:03:46.039Z,22.60
2023-05-21T21:06:19.040Z,22.60
2023-05-21T21:08:50.414Z,22.60
2023-05-21T21:11:19.050Z,22.60
2023-05-21T21:13:48.020Z,22.60
2023-05-21T21:16:16.670Z,22.50
2023-05-21T21:18:47.213Z,22.60
2023-05-21T21:21:15.810Z,22.60
2023-05-21T21:23:44.621Z,22.60
2023-05-21T21:26:13.102Z,22.60
2023-05-21T21:28:42.014Z,22.60
2023-05-21T21:31:10.572Z,22.60
2023-05-21T21:33:39.375Z,22.60
2023-05-21T21:36:08.187Z,22.60
2023-05-21T21:38:36.984Z,22.60
2023-05-21T21:41:05.608Z,22.60
2023-05-21T21:43:34.787Z,22.50
2023-05-21T21:46:03.377Z,22.60
2023-05-21T21:48:32.272Z,22.60
2023-05-21T21:51:00.825Z,22.50
2023-05-21T21:53:29.589Z,22.50
2023-05-21T21:55:58.155Z,22.50
2023-05-21T21:58:27.040Z,22.50
2023-05-21T22:00:55.761Z,22.50
2023-05-21T22:03:24.577Z,22.50
2023-05-21T22:05:55.395Z,22.50
2023-05-21T22:08:25.753Z,22.50
2023-05-21T22:10:54.267Z,22.50
2023-05-21T22:13:23.022Z,22.50
2023-05-21T22:15:51.895Z,22.50
2023-05-21T22:18:31.927Z,22.50
2023-05-21T22:21:10.205Z,22.50
2023-05-21T22:23:39.851Z,22.50
2023-05-21T22:26:09.345Z,22.50
2023-05-21T22:28:38.396Z,22.50
2023-05-21T22:31:07.871Z,22.50
2023-05-21T22:33:36.907Z,22.50
2023-05-21T22:36:06.377Z,22.40
2023-05-21T22:38:35.189Z,22.40
2023-05-21T22:41:03.965Z,22.40
2023-05-21T22:43:34.976Z,22.40
2023-05-21T22:46:03.799Z,22.40
2023-05-21T22:48:34.709Z,22.40
2023-05-21T22:51:04.834Z,22.40
2023-05-21T22:53:33.893Z,22.40
2023-05-21T22:56:02.500Z,22.40
2023-05-21T22:58:31.343Z,22.40
2023-05-21T23:00:59.818Z,22.40
2023-05-21T23:03:28.747Z,22.40
2023-05-21T23:05:57.277Z,22.40
2023-05-21T23:08:26.385Z,22.40
2023-05-21T23:10:55.134Z,22.40
2023-05-21T23:13:24.098Z,22.40
2023-05-21T23:15:54.135Z,22.40
2023-05-21T23:18:23.161Z,22.40
2023-05-21T23:20:52.294Z,22.40
2023-05-21T23:23:21.250Z,22.40
2023-05-21T23:25:52.195Z,22.40
2023-05-21T23:28:21.508Z,22.40
2023-05-21T23:30:50.267Z,22.40
2023-05-21T23:33:19.274Z,22.40
2023-05-21T23:35:47.868Z,22.40
2023-05-21T23:38:16.949Z,22.40
2023-05-21T23:40:45.639Z,22.40
2023-05-21T23:43:14.591Z,22.40
2023-05-21T23:45:43.244Z,22.40
2023-05-21T23:48:12.274Z,22.40
2023-05-21T23:50:41.195Z,22.40
2023-05-21T23:53:10.576Z,22.50
2023-05-21T23:55:39.325Z,22.50
2023-05-21T23:58:08.222Z,22.50
